Flight Track Log - Related Links

Times and Time Zones

All times are in EDT time to prevent confusion due to time zone crossing. See the DAL1733 flight status page for this flight to view local times or setup timezone preferences in your user account.

Time Position Orientation Groundspeed Altitude Reporting Facility
EDT Latitude Longitude Course Direction KTS MPH feet Rate Location/Type
Tue 10:36:58 AM 33.6500 -84.3833 252° West 159 183 2,600  Level Atlanta TRACON
Tue 10:38:04 AM 33.6667 -84.3167 73° East 229 264 4,500 2,400 Climbing Atlanta TRACON
Tue 10:38:58 AM 33.7333 -84.2833 23° Northeast 283 326 7,400 3,158 Climbing Atlanta TRACON
Tue 10:39:00 AM 33.8001 -84.3957 270° West  Level FlightAware Approximate
Tue 10:39:58 AM 33.8000 -84.3000 348° North 302 348 10,500  Level Atlanta TRACON
Tue 10:40:00 AM 33.8000 -84.5441 270° West  Level FlightAware Approximate
Tue 10:40:58 AM 33.8167 -84.4167 280° West 364 419 11,900  Level Atlanta TRACON
Tue 10:41:00 AM 33.7802 -84.6886 252° West  Level FlightAware Approximate
Tue 10:41:58 AM 33.8167 -84.5333 270° West 382 440 14,000  Level Atlanta TRACON
Tue 10:42:00 AM 33.7413 -84.8293 252° West  Level FlightAware Approximate
Tue 10:42:58 AM 33.7833 -84.6667 253° West 387 445 14,000  Level Atlanta TRACON
Tue 10:44:43 AM 33.7350 -84.8856 255° West 412 474 15,000 1,200 Climbing Atlanta Center
Tue 10:45:43 AM 33.7047 -85.0178 255° West 402 463 17,300 2,050 Climbing Atlanta Center
Tue 10:46:43 AM 33.6703 -85.1494 253° West 414 476 19,100 1,900 Climbing Atlanta Center
Tue 10:47:43 AM 33.6503 -85.2892 260° West 425 489 21,100 1,900 Climbing Atlanta Center
Tue 10:48:43 AM 33.6528 -85.4364 271° West 439 505 22,900 1,700 Climbing Atlanta Center
Tue 10:49:43 AM 33.6550 -85.5911 271° West 455 524 24,500 1,400 Climbing Atlanta Center
Tue 10:50:43 AM 33.6594 -85.7308 272° West 466 536 25,700 1,250 Climbing Atlanta Center
Tue 10:51:43 AM 33.6614 -85.8883 271° West 471 542 27,000 1,250 Climbing Atlanta Center
Tue 10:52:43 AM 33.6608 -86.0528 270° West 482 555 28,200 1,250 Climbing Atlanta Center
Tue 10:53:43 AM 33.6644 -86.2203 272° West 494 568 29,500 1,450 Climbing Atlanta Center
Tue 10:54:43 AM 33.6656 -86.3850 271° West 500 575 31,100 1,250 Climbing Atlanta Center
Tue 10:55:43 AM 33.6664 -86.5497 270° West 500 575 32,000 450 Climbing Atlanta Center
Tue 10:56:43 AM 33.6672 -86.7144 270° West 495 570 32,000  Level Atlanta Center
Tue 10:57:43 AM 33.6697 -86.8744 271° West 495 570 32,000 3,000 Level Atlanta Center
Tue 10:58:43 AM 33.6722 -87.0367 271° West 490 564 38,000 550 Climbing Atlanta Center
Tue 10:59:43 AM 33.6744 -87.1989 271° West 490 564 33,100 -324 Descending Atlanta Center
Tue 11:03:02 AM 33.6778 -87.7436 271° West 480 552 36,600 1,042 Climbing Memphis Center
Tue 11:04:02 AM 33.6933 -87.9006 277° West 474 545 37,600 700 Climbing Memphis Center
Tue 11:05:02 AM 33.7214 -88.0519 283° West 474 545 38,000 200 Climbing Memphis Center
Tue 11:06:02 AM 33.7492 -88.2011 283° West 474 545 38,000  Level Memphis Center
Tue 11:07:02 AM 33.7744 -88.3531 281° West 467 537 38,000  Level Memphis Center
Tue 11:08:02 AM 33.8019 -88.5025 283° West 467 537 38,000  Level Memphis Center
Tue 11:09:02 AM 33.8292 -88.6492 283° West 467 537 38,000  Level Memphis Center
Tue 11:10:02 AM 33.8561 -88.7964 282° West 462 532 38,000  Level Memphis Center
Tue 11:11:02 AM 33.8786 -88.9361 281° West 445 512 38,000  Level Memphis Center
Tue 11:12:02 AM 33.9031 -89.0658 283° West 445 512 38,000  Level Memphis Center
Tue 11:13:02 AM 33.9272 -89.2081 282° West 445 512 38,000 -300 Level Memphis Center
Tue 11:14:02 AM 33.9517 -89.3581 281° West 450 518 37,400 -800 Descending Memphis Center
Tue 11:15:02 AM 33.9778 -89.5031 282° West 449 517 36,400 -1,000 Descending Memphis Center
Tue 11:16:02 AM 34.0036 -89.6531 282° West 449 517 35,400 -1,000 Descending Memphis Center
Tue 11:17:02 AM 34.0297 -89.8183 281° West 455 524 34,400 -1,000 Descending Memphis Center
Tue 11:18:02 AM 34.0553 -89.9711 281° West 467 537 33,400 -1,000 Descending Memphis Center
Tue 11:19:02 AM 34.0806 -90.1239 281° West 467 537 32,400 -1,000 Descending Memphis Center
Tue 11:20:02 AM 34.1081 -90.2819 282° West 467 537 31,400 -1,000 Descending Memphis Center
Tue 11:21:02 AM 34.1350 -90.4400 282° West 478 550 30,400 -1,550 Descending Memphis Center
Tue 11:22:02 AM 34.1600 -90.5981 281° West 483 556 28,300 -2,650 Descending Memphis Center
Tue 11:23:02 AM 34.1847 -90.7564 281° West 483 556 25,100 -2,800 Descending Memphis Center
Tue 11:24:02 AM 34.2050 -90.8947 280° West 483 556 22,700 -2,650 Descending Memphis Center
Tue 11:25:02 AM 34.2272 -91.0406 280° West 459 528 19,800 -2,650 Descending Memphis Center
Tue 11:26:02 AM 34.2514 -91.1814 282° West 447 514 17,400 -2,550 Descending Memphis Center
Tue 11:27:02 AM 34.2756 -91.3225 282° West 429 494 14,700 -2,667 Descending Memphis Center
Tue 11:28:08 AM 34.2972 -91.4811 279° West 404 465 11,800 -2,050 Descending Memphis Center
Tue 11:29:02 AM 34.3275 -91.5894 289° West 410 472 10,600 -1,082 Descending Memphis Center
Tue 11:30:10 AM 34.3783 -91.6958 300° West 312 359 9,600 -1,100 Descending Memphis Center
Tue 11:31:02 AM 34.4194 -91.7747 302° West 333 383 8,400 -1,500 Descending Memphis Center
Tue 11:32:02 AM 34.4600 -91.8583 300° West 307 353 6,800 -1,500 Descending Memphis Center
Tue 11:33:02 AM 34.4986 -91.9447 298° West 294 338 5,400 -1,150 Descending Memphis Center
Tue 11:34:02 AM 34.5394 -92.0264 301° West 289 333 4,500 -1,200 Descending Memphis Center
Tue 11:35:02 AM 34.5758 -92.1078 299° West 284 327 3,000 -750 Descending Memphis Center
Tue 11:36:02 AM 34.6081 -92.1764 300° West 267 307 3,000 -50 Level Memphis Center
Tue 11:37:02 AM 34.6197 -92.2447 282° West 230 265 2,900 -100 Descending Memphis Center

Login

Don't have an account? Register now (free) for customized features, flight alerts, and more!